N773GP / N773GP 7700 Squawk Report (18th of January, 2018)

Time Lat Lon Altitude Heading Speed Vertical Rate
2018-01-18 18:01:35 GMT 39.57330 -104.84395 0 345 0 0
2018-01-18 18:01:21 GMT 39.57296 -104.84398 0 357 11 0
2018-01-18 18:00:58 GMT 39.57194 -104.84393 0 11 11 0
2018-01-18 18:00:49 GMT 39.57158 -104.84373 0 284 17 0
2018-01-18 18:00:22 GMT 39.56992 -104.83823 5,625 290 49 64
2018-01-18 17:59:55 GMT 39.56642 -104.82629 5,750 291 100 -576
2018-01-18 17:59:47 GMT 39.56479 -104.82104 5,825 300 104 -640
2018-01-18 17:59:36 GMT 39.56107 -104.81598 5,950 329 111 -640
2018-01-18 17:59:23 GMT 39.55545 -104.81244 6,075 338 120 -512
2018-01-18 17:59:16 GMT 39.55101 -104.81023 6,175 341 129 -640
2018-01-18 17:59:13 GMT 39.55004 -104.80981 6,200 342 129 -704
2018-01-18 17:59:07 GMT 39.54580 -104.80798 6,275 343 130 -704
2018-01-18 17:59:04 GMT 39.54492 -104.80762 6,300 343 130 -576
2018-01-18 17:59:02 GMT 39.54369 -104.80712 6,300 343 133 -576
2018-01-18 17:58:59 GMT 39.54194 -104.80646 6,350 344 136 -576
2018-01-18 17:58:53 GMT 39.53733 -104.80456 6,400 344 147 -448
2018-01-18 17:58:47 GMT 39.53393 -104.80328 6,450 344 151 -384
2018-01-18 17:58:44 GMT 39.53142 -104.80231 6,475 344 155 -384
2018-01-18 17:58:42 GMT 39.52983 -104.80170 6,500 344 156 -320
2018-01-18 17:58:33 GMT 39.52434 -104.79950 6,525 343 158 -384
2018-01-18 17:58:30 GMT 39.52258 -104.79882 6,550 343 158 -384
2018-01-18 17:58:27 GMT 39.52029 -104.79787 6,575 343 158 -320
2018-01-18 17:58:20 GMT 39.51512 -104.79584 6,625 343 160 -576
2018-01-18 17:58:18 GMT 39.51329 -104.79512 6,650 343 160 -576
2018-01-18 17:58:12 GMT 39.50930 -104.79340 6,700 342 161 -512
2018-01-18 17:58:09 GMT 39.50752 -104.79261 6,725 342 162 -512
2018-01-18 17:58:07 GMT 39.50581 -104.79187 6,750 341 167 0
2018-01-18 17:58:02 GMT 39.50167 -104.78998 6,800 341 167 -512
2018-01-18 17:57:59 GMT 39.49939 -104.78894 6,825 341 170 -512
2018-01-18 17:57:56 GMT 39.49791 -104.78825 6,825 341 172 -576
2018-01-18 17:57:48 GMT 39.49129 -104.78522 6,925 341 178 -512
2018-01-18 17:57:39 GMT 39.48514 -104.78235 6,975 341 179 -512
2018-01-18 17:57:37 GMT 39.48280 -104.78121 7,025 341 185 -512
2018-01-18 17:57:34 GMT 39.48063 -104.78021 7,050 341 184 -512
2018-01-18 17:57:31 GMT 39.47722 -104.77864 7,075 341 183 -512
2018-01-18 17:57:25 GMT 39.47397 -104.77715 7,125 341 183 -448
2018-01-18 17:57:23 GMT 39.47146 -104.77600 7,150 341 182 -448
2018-01-18 17:57:19 GMT 39.46898 -104.77488 7,150 340 183 -384
2018-01-18 17:57:15 GMT 39.46532 -104.77315 7,200 341 182 -576
2018-01-18 17:57:13 GMT 39.46424 -104.77264 7,200 340 183 -512
2018-01-18 17:57:05 GMT 39.45717 -104.76929 7,300 340 180 -512
2018-01-18 17:57:03 GMT 39.45544 -104.76849 7,325 340 180 -320
2018-01-18 17:56:59 GMT 39.45279 -104.76721 7,325 340 180 0
2018-01-18 17:56:53 GMT 39.44785 -104.76495 7,325 340 183 128
2018-01-18 17:56:48 GMT 39.44435 -104.76324 7,325 340 186 0
2018-01-18 17:56:42 GMT 39.43950 -104.76091 7,325 340 187 -64
2018-01-18 17:56:33 GMT 39.43108 -104.75691 7,325 340 189 -320
2018-01-18 17:56:23 GMT 39.42407 -104.75354 7,375 340 188 -256
2018-01-18 17:56:21 GMT 39.42151 -104.75237 7,400 341 190 -384
2018-01-18 17:56:17 GMT 39.41797 -104.75073 7,425 340 188 -448
2018-01-18 17:56:11 GMT 39.41308 -104.74835 7,475 340 190 -512
2018-01-18 17:56:06 GMT 39.40929 -104.74652 7,525 340 190 -512
2018-01-18 17:55:59 GMT 39.40428 -104.74414 7,575 340 187 -576
2018-01-18 17:55:48 GMT 39.39532 -104.73983 7,650 339 186 -192
2018-01-18 17:55:38 GMT 39.38678 -104.73560 7,700 340 185 -128
2018-01-18 17:55:28 GMT 39.37816 -104.73147 7,725 340 186 -256
2018-01-18 17:55:17 GMT 39.36928 -104.72711 7,750 339 185 -256
2018-01-18 17:55:07 GMT 39.36215 -104.72363 7,800 339 185 -256
2018-01-18 17:55:05 GMT 39.36024 -104.72266 7,800 339 185 -256
2018-01-18 17:54:57 GMT 39.35408 -104.71911 7,825 335 183 -64
2018-01-18 17:54:54 GMT 39.35207 -104.71792 7,825 335 183 -64
2018-01-18 17:54:46 GMT 39.34600 -104.71423 7,825 335 183 64
2018-01-18 17:54:44 GMT 39.34400 -104.71301 7,825 335 182 0
2018-01-18 17:54:32 GMT 39.33529 -104.70782 7,825 335 183 -64
2018-01-18 17:54:25 GMT 39.32968 -104.70442 7,825 336 182 0
2018-01-18 17:54:23 GMT 39.32747 -104.70312 7,825 336 182 0
2018-01-18 17:54:15 GMT 39.32179 -104.69971 7,825 335 182 64
2018-01-18 17:54:11 GMT 39.31892 -104.69797 7,825 336 182 -64
2018-01-18 17:54:01 GMT 39.31096 -104.69320 7,825 335 182 0
2018-01-18 17:53:50 GMT 39.30266 -104.68823 7,825 335 182 -64
2018-01-18 17:53:40 GMT 39.29414 -104.68310 7,825 336 180 64
2018-01-18 17:53:29 GMT 39.28619 -104.67833 7,825 335 182 0
2018-01-18 17:53:17 GMT 39.27752 -104.67316 7,825 335 182 -64
2018-01-18 17:53:07 GMT 39.26976 -104.66854 7,825 335 183 -64
2018-01-18 17:52:55 GMT 39.26106 -104.66329 7,825 335 181 64
2018-01-18 17:52:45 GMT 39.25271 -104.65826 7,825 335 183 0
2018-01-18 17:52:34 GMT 39.24463 -104.65343 7,825 336 185 64
2018-01-18 17:52:24 GMT 39.23567 -104.64807 7,825 335 186 0
2018-01-18 17:52:12 GMT 39.22752 -104.64313 7,825 335 188 -192
2018-01-18 17:52:02 GMT 39.21924 -104.63818 7,850 335 188 -192
2018-01-18 17:51:52 GMT 39.21080 -104.63313 7,900 336 187 -320
2018-01-18 17:51:40 GMT 39.20238 -104.62817 7,950 336 185 -320
2018-01-18 17:51:30 GMT 39.19446 -104.62340 8,000 335 182 -320
2018-01-18 17:51:20 GMT 39.18622 -104.61844 8,050 336 177 -256
2018-01-18 17:51:10 GMT 39.17869 -104.61389 8,075 335 173 0
2018-01-18 17:51:08 GMT 39.17830 -104.61367 8,075 335 174 0
2018-01-18 17:50:54 GMT 39.16818 -104.60722 8,075 334 170 -64
2018-01-18 17:50:47 GMT 39.16315 -104.60376 8,075 331 164 -64
2018-01-18 17:50:36 GMT 39.15587 -104.59820 8,075 327 155 0
2018-01-18 17:50:25 GMT 39.15071 -104.59137 8,075 300 144 0
2018-01-18 17:50:19 GMT 39.14894 -104.58612 8,075 287 136 0
2018-01-18 17:50:15 GMT 39.14852 -104.58386 8,075 277 133 128
2018-01-18 17:50:07 GMT 39.14850 -104.57784 8,050 263 128 128
2018-01-18 17:50:05 GMT 39.14900 -104.57522 8,025 240 122 0
2018-01-18 17:49:57 GMT 39.15132 -104.57123 8,025 216 117 320
2018-01-18 17:49:53 GMT 39.15340 -104.56978 8,000 196 115 896
2018-01-18 17:49:45 GMT 39.15733 -104.56960 7,875 171 117 960
2018-01-18 17:49:42 GMT 39.15866 -104.56996 7,825 165 118 192
2018-01-18 17:49:36 GMT 39.16258 -104.57147 7,825 152 114 0
2018-01-18 17:49:32 GMT 39.16411 -104.57241 7,825 146 115 -64
2018-01-18 17:49:22 GMT 39.16803 -104.57788 7,850 114 119 64
2018-01-18 17:49:11 GMT 39.16887 -104.58543 7,825 84 123 -64
2018-01-18 17:48:59 GMT 39.16831 -104.59345 7,800 84 125 192
2018-01-18 17:48:49 GMT 39.16770 -104.60132 7,800 83 125 -64
2018-01-18 17:48:38 GMT 39.16691 -104.60938 7,775 82 125 64
2018-01-18 17:48:28 GMT 39.16617 -104.61700 7,825 82 117 0
2018-01-18 17:48:16 GMT 39.16551 -104.62494 7,800 84 117 192
2018-01-18 17:48:05 GMT 39.16502 -104.63247 7,775 86 121 64
2018-01-18 17:47:55 GMT 39.16484 -104.63988 7,750 87 123 -128
2018-01-18 17:47:44 GMT 39.16452 -104.64818 7,775 87 121 -64
2018-01-18 17:47:34 GMT 39.16438 -104.65546 7,825 92 120 -256
2018-01-18 17:47:30 GMT 39.16461 -104.65869 7,825 106 120 0
2018-01-18 17:47:23 GMT 39.16621 -104.66327 7,825 177 115 -64
2018-01-18 17:47:13 GMT 39.17065 -104.66723 7,850 163 118 -448
2018-01-18 17:47:02 GMT 39.17645 -104.66754 7,875 202 113 512
2018-01-18 17:46:51 GMT 39.18100 -104.66317 7,825 240 116 -64
2018-01-18 17:46:40 GMT 39.18228 -104.65570 7,825 277 116 192
2018-01-18 17:46:29 GMT 39.17971 -104.64929 7,775 320 120 192
2018-01-18 17:46:16 GMT 39.17334 -104.64648 7,750 0 124 -64
2018-01-18 17:46:06 GMT 39.16804 -104.64884 7,775 34 121 -128
2018-01-18 17:45:54 GMT 39.16429 -104.65612 7,775 75 121 64
2018-01-18 17:45:44 GMT 39.16351 -104.66309 7,750 81 122 64
2018-01-18 17:45:33 GMT 39.16254 -104.67133 7,800 90 119 -256
2018-01-18 17:45:24 GMT 39.16449 -104.67731 7,825 139 116 -128
2018-01-18 17:45:12 GMT 39.16988 -104.68054 7,825 168 114 -64
2018-01-18 17:45:00 GMT 39.17566 -104.68079 7,850 191 109 -128
2018-01-18 17:44:51 GMT 39.17976 -104.67785 7,825 231 110 -128
2018-01-18 17:44:40 GMT 39.18190 -104.67096 7,850 266 114 320
2018-01-18 17:44:30 GMT 39.18213 -104.66339 7,750 275 119 448
2018-01-18 17:44:19 GMT 39.18069 -104.65570 7,700 296 123 64
2018-01-18 17:44:08 GMT 39.17665 -104.65051 7,675 338 125 64
2018-01-18 17:43:56 GMT 39.17031 -104.64984 7,700 12 122 -320
2018-01-18 17:43:45 GMT 39.16530 -104.65475 7,750 63 122 -768
2018-01-18 17:43:35 GMT 39.16440 -104.66193 7,900 85 121 -960
2018-01-18 17:43:28 GMT 39.16435 -104.66748 8,050 97 124 -896
2018-01-18 17:43:25 GMT 39.16466 -104.66967 8,100 109 126 -640
2018-01-18 17:43:16 GMT 39.16722 -104.67481 8,175 142 129 -576
2018-01-18 17:43:14 GMT 39.16869 -104.67594 8,200 157 128 -768
2018-01-18 17:43:11 GMT 39.17050 -104.67670 8,250 162 128 -832
2018-01-18 17:43:06 GMT 39.17317 -104.67702 8,300 181 126 -576
2018-01-18 17:43:03 GMT 39.17509 -104.67684 8,325 187 125 -448
2018-01-18 17:43:00 GMT 39.17632 -104.67664 8,325 192 123 -256
2018-01-18 17:42:55 GMT 39.17926 -104.67582 8,350 193 121 128
2018-01-18 17:42:51 GMT 39.18086 -104.67535 8,350 194 123 256
2018-01-18 17:42:43 GMT 39.18535 -104.67395 8,350 195 127 -320
2018-01-18 17:42:40 GMT 39.18707 -104.67334 8,375 198 125 -192
2018-01-18 17:42:31 GMT 39.19244 -104.66943 8,375 225 125 -128
2018-01-18 17:42:22 GMT 39.19512 -104.66455 8,400 245 124 0
2018-01-18 17:42:20 GMT 39.19573 -104.66284 8,400 252 125 64
2018-01-18 17:42:18 GMT 39.19591 -104.66211 8,400 253 124 64
2018-01-18 17:42:11 GMT 39.19684 -104.65612 8,400 264 126 -128
2018-01-18 17:42:09 GMT 39.19693 -104.65493 8,400 264 126 -64
2018-01-18 17:42:00 GMT 39.19764 -104.64789 8,375 260 131 384
2018-01-18 17:41:58 GMT 39.19775 -104.64681 8,375 260 132 320
2018-01-18 17:41:47 GMT 39.19954 -104.63815 8,325 253 140 0
2018-01-18 17:41:38 GMT 39.20164 -104.63033 8,350 250 138 -1920
2018-01-18 17:41:35 GMT 39.20206 -104.62909 8,400 248 138 -2112
2018-01-18 17:41:34 GMT 39.20242 -104.62806 8,450 244 136 -2304
2018-01-18 17:41:26 GMT 39.20645 -104.62358 8,800 196 137 -1536
2018-01-18 17:41:26 GMT 39.20645 -104.62358 8,800 196 137 -1536
2018-01-18 17:41:16 GMT 39.21304 -104.62543 9,000 138 158 -1856
2018-01-18 17:41:14 GMT 39.21332 -104.62573 9,000 131 160 -2176
2018-01-18 17:41:05 GMT 39.21505 -104.63397 9,525 68 133 -3328
2018-01-18 17:41:03 GMT 39.21478 -104.63480 9,600 65 132 -3200
2018-01-18 17:40:56 GMT 39.21185 -104.63868 9,875 23 115 -1984
2018-01-18 17:40:54 GMT 39.21062 -104.63922 9,950 6 111 -1920
2018-01-18 17:40:51 GMT 39.20938 -104.63928 10,050 1 111 -1536
2018-01-18 17:40:45 GMT 39.20668 -104.63689 10,150 301 117 -192
2018-01-18 17:40:42 GMT 39.20616 -104.63574 10,175 294 121 192
2018-01-18 17:40:36 GMT 39.20499 -104.63153 10,150 289 126 256
2018-01-18 17:40:34 GMT 39.20439 -104.62901 10,125 285 122 64
2018-01-18 17:40:32 GMT 39.20401 -104.62750 10,125 287 122 448
2018-01-18 17:40:21 GMT 39.20265 -104.62041 10,100 283 107 448
2018-01-18 17:40:13 GMT 39.20187 -104.61582 10,100 281 97 -896
2018-01-18 17:40:11 GMT 39.20164 -104.61414 10,150 280 87 -512
2018-01-18 17:40:09 GMT 39.20160 -104.61391 10,150 280 87 -512
2018-01-18 17:40:03 GMT 39.20117 -104.61084 10,150 281 76 768
2018-01-18 17:40:00 GMT 39.20091 -104.60919 10,100 282 77 1280
2018-01-18 17:39:53 GMT 39.20032 -104.60585 9,900 286 87 1536
2018-01-18 17:39:49 GMT 39.19986 -104.60399 9,825 287 96 640
2018-01-18 17:39:49 GMT 39.19986 -104.60399 9,825 287 96 640
2018-01-18 17:39:42 GMT 39.19908 -104.60053 9,800 286 100 128
2018-01-18 17:39:38 GMT 39.19853 -104.59802 9,800 286 102 320
2018-01-18 17:39:38 GMT 39.19853 -104.59802 9,800 286 102 320
2018-01-18 17:39:32 GMT 39.19775 -104.59438 9,750 285 108 192
2018-01-18 17:39:27 GMT 39.19716 -104.59140 9,750 284 110 0
2018-01-18 17:39:27 GMT 39.19716 -104.59140 9,750 284 110 0
2018-01-18 17:39:20 GMT 39.19643 -104.58698 9,725 282 111 128
2018-01-18 17:39:16 GMT 39.19601 -104.58441 9,725 282 110 0
2018-01-18 17:39:07 GMT 39.19512 -104.57806 9,800 279 96 -1408
2018-01-18 17:39:05 GMT 39.19505 -104.57754 9,825 279 89 -1216
2018-01-18 17:39:00 GMT 39.19469 -104.57480 9,850 285 73 832
2018-01-18 17:38:57 GMT 39.19450 -104.57396 9,825 285 73 704
2018-01-18 17:38:55 GMT 39.19424 -104.57263 9,800 288 76 320
2018-01-18 17:38:50 GMT 39.19373 -104.57068 9,775 288 74 448
2018-01-18 17:38:45 GMT 39.19318 -104.56859 9,725 291 73 1152
2018-01-18 17:38:43 GMT 39.19307 -104.56812 9,700 291 73 1152
2018-01-18 17:38:40 GMT 39.19252 -104.56647 9,625 297 76 1600
2018-01-18 17:38:40 GMT 39.19244 -104.56626 9,600 297 76 1600
2018-01-18 17:38:34 GMT 39.19144 -104.56399 9,475 301 87 768
2018-01-18 17:38:32 GMT 39.19126 -104.56354 9,450 302 87 704
2018-01-18 17:38:29 GMT 39.19037 -104.56177 9,425 305 90 64
2018-01-18 17:38:23 GMT 39.18874 -104.55896 9,425 308 91 0
2018-01-18 17:38:19 GMT 39.18768 -104.55724 9,425 309 93 64
2018-01-18 17:38:12 GMT 39.18581 -104.55426 9,400 310 98 320
2018-01-18 17:38:06 GMT 39.18437 -104.55206 9,375 310 101 448
2018-01-18 17:38:00 GMT 39.18246 -104.54901 9,375 309 109 0
2018-01-18 17:37:50 GMT 39.17912 -104.54351 9,350 308 119 576
2018-01-18 17:37:49 GMT 39.17903 -104.54327 9,350 308 118 576
2018-01-18 17:37:39 GMT 39.17515 -104.53662 9,325 305 134 -512
2018-01-18 17:37:29 GMT 39.17096 -104.52985 9,400 316 137 -320
2018-01-18 17:37:23 GMT 39.16831 -104.52710 9,425 330 141 -256
2018-01-18 17:37:19 GMT 39.16575 -104.52539 9,450 340 141 128
2018-01-18 17:37:18 GMT 39.16510 -104.52509 9,450 342 141 192
2018-01-18 17:37:17 GMT 39.16479 -104.52494 9,450 342 141 192
2018-01-18 17:37:07 GMT 39.15835 -104.52307 9,400 347 140 192
2018-01-18 17:36:57 GMT 39.15221 -104.52094 9,375 333 133 0
2018-01-18 17:36:55 GMT 39.15138 -104.52052 9,375 335 133 64
2018-01-18 17:36:45 GMT 39.14671 -104.51526 9,325 295 127 512
2018-01-18 17:36:34 GMT 39.14552 -104.50745 9,250 259 127 384
2018-01-18 17:36:25 GMT 39.14852 -104.50116 9,150 214 132 704
2018-01-18 17:36:23 GMT 39.14928 -104.50046 9,125 212 133 640
2018-01-18 17:36:14 GMT 39.15481 -104.49823 9,050 192 132 320
2018-01-18 17:36:12 GMT 39.15537 -104.49813 9,025 192 132 384
2018-01-18 17:36:03 GMT 39.16105 -104.49683 9,000 190 115 512
2018-01-18 17:36:01 GMT 39.16164 -104.49670 9,000 190 113 640
2018-01-18 17:35:51 GMT 39.16690 -104.49574 8,950 187 97 320
2018-01-18 17:35:40 GMT 39.17148 -104.49515 8,900 186 84 -960
2018-01-18 17:35:30 GMT 39.17548 -104.49554 8,925 167 94 448
2018-01-18 17:35:21 GMT 39.17925 -104.49676 8,900 165 103 128
2018-01-18 17:35:19 GMT 39.18050 -104.49719 8,900 165 102 320
2018-01-18 17:35:10 GMT 39.18465 -104.49854 8,825 165 102 768
2018-01-18 17:35:08 GMT 39.18530 -104.49879 8,825 165 103 896
2018-01-18 17:35:08 GMT 39.18553 -104.49884 8,800 165 103 896
2018-01-18 17:34:59 GMT 39.18954 -104.50012 8,675 166 108 -832
2018-01-18 17:34:57 GMT 39.19051 -104.50049 8,700 167 94 -1472
2018-01-18 17:34:49 GMT 39.19377 -104.50085 8,875 192 73 192
2018-01-18 17:34:48 GMT 39.19409 -104.50076 8,850 195 74 256
2018-01-18 17:34:46 GMT 39.19475 -104.50049 8,850 205 81 128
2018-01-18 17:34:37 GMT 39.19812 -104.49831 8,850 209 93 128
2018-01-18 17:34:35 GMT 39.19899 -104.49765 8,825 210 92 128
2018-01-18 17:34:27 GMT 39.20159 -104.49579 8,825 210 90 64
2018-01-18 17:34:25 GMT 39.20248 -104.49512 8,825 210 90 512
2018-01-18 17:34:22 GMT 39.20320 -104.49455 8,825 210 90 576
2018-01-18 17:34:16 GMT 39.20549 -104.49288 8,750 209 95 -832
2018-01-18 17:34:14 GMT 39.20650 -104.49216 8,775 208 91 -1728
2018-01-18 17:34:10 GMT 39.20764 -104.49138 8,850 216 67 -640
2018-01-18 17:34:07 GMT 39.20869 -104.49037 8,875 222 66 -64
2018-01-18 17:34:03 GMT 39.20956 -104.48923 8,875 232 74 448
2018-01-18 17:34:00 GMT 39.20998 -104.48852 8,875 236 79 384
2018-01-18 17:33:56 GMT 39.21098 -104.48655 8,850 239 90 448
2018-01-18 17:33:52 GMT 39.21193 -104.48462 8,825 237 92 768
2018-01-18 17:33:46 GMT 39.21314 -104.48224 8,750 237 93 768
2018-01-18 17:33:43 GMT 39.21382 -104.48100 8,725 237 95 960
2018-01-18 17:33:41 GMT 39.21458 -104.47955 8,650 236 97 128
2018-01-18 17:33:34 GMT 39.21629 -104.47592 8,800 250 78 -1472
2018-01-18 17:33:30 GMT 39.21648 -104.47431 8,900 280 64 -1088
2018-01-18 17:33:28 GMT 39.21629 -104.47359 8,925 301 64 -448
2018-01-18 17:33:23 GMT 39.21533 -104.47229 8,950 334 72 -576
2018-01-18 17:33:19 GMT 39.21374 -104.47174 9,025 356 81 -192
2018-01-18 17:33:16 GMT 39.21291 -104.47174 9,025 2 86 0
2018-01-18 17:33:11 GMT 39.21108 -104.47210 9,025 12 90 0
2018-01-18 17:33:08 GMT 39.20947 -104.47252 9,025 12 90 0
2018-01-18 17:33:04 GMT 39.20833 -104.47288 9,025 12 89 64
2018-01-18 17:33:01 GMT 39.20691 -104.47329 9,025 13 89 0
2018-01-18 17:32:57 GMT 39.20522 -104.47377 9,025 14 88 -64
2018-01-18 17:32:53 GMT 39.20383 -104.47430 9,025 15 89 -192
2018-01-18 17:32:50 GMT 39.20242 -104.47479 9,025 15 89 -64
2018-01-18 17:32:45 GMT 39.20059 -104.47544 9,025 14 91 576
2018-01-18 17:32:42 GMT 39.19922 -104.47586 9,000 14 97 640
2018-01-18 17:32:39 GMT 39.19768 -104.47638 8,975 14 104 384
2018-01-18 17:32:34 GMT 39.19546 -104.47711 8,950 13 112 -64
2018-01-18 17:32:30 GMT 39.19368 -104.47766 8,950 13 115 0
2018-01-18 17:32:28 GMT 39.19256 -104.47797 8,950 12 115 0
2018-01-18 17:32:24 GMT 39.18995 -104.47876 8,950 12 120 448
2018-01-18 17:32:20 GMT 39.18828 -104.47920 8,950 12 124 384
2018-01-18 17:32:18 GMT 39.18670 -104.47961 8,925 11 128 64
2018-01-18 17:32:09 GMT 39.18187 -104.48088 8,950 10 133 -128
2018-01-18 17:32:07 GMT 39.18009 -104.48126 8,950 9 134 0
2018-01-18 17:32:01 GMT 39.17576 -104.48218 8,950 7 136 192
2018-01-18 17:31:57 GMT 39.17324 -104.48267 8,925 8 136 256
2018-01-18 17:31:52 GMT 39.17038 -104.48314 8,925 5 135 128
2018-01-18 17:31:49 GMT 39.16919 -104.48328 8,900 4 135 64
2018-01-18 17:31:47 GMT 39.16817 -104.48340 8,900 4 135 64
2018-01-18 17:31:45 GMT 39.16681 -104.48350 8,900 4 135 64
2018-01-18 17:31:41 GMT 39.16370 -104.48380 8,900 4 134 0
2018-01-18 17:31:36 GMT 39.16132 -104.48407 8,900 4 132 384
2018-01-18 17:31:34 GMT 39.16008 -104.48422 8,900 4 132 640
2018-01-18 17:31:30 GMT 39.15701 -104.48458 8,825 5 135 512
2018-01-18 17:31:25 GMT 39.15374 -104.48511 8,775 15 139 64
2018-01-18 17:31:18 GMT 39.15056 -104.48744 8,800 49 144 -64
2018-01-18 17:31:15 GMT 39.14928 -104.49097 8,800 83 148 128
2018-01-18 17:31:07 GMT 39.15038 -104.49646 8,775 124 152 128
2018-01-18 17:31:04 GMT 39.15646 -104.49915 8,800 198 148 0
2018-01-18 17:30:58 GMT 39.15678 -104.49903 8,800 206 148 -192
2018-01-18 17:30:52 GMT 39.15942 -104.49560 8,825 249 141 -896
2018-01-18 17:30:48 GMT 39.15960 -104.49194 8,900 287 133 -704
2018-01-18 17:30:46 GMT 39.15953 -104.49162 8,900 292 133 -640
2018-01-18 17:30:41 GMT 39.15732 -104.48840 8,925 336 132 128
2018-01-18 17:30:35 GMT 39.15390 -104.48780 8,900 4 136 320
2018-01-18 17:30:31 GMT 39.15053 -104.48822 8,900 5 138 0
2018-01-18 17:30:29 GMT 39.14922 -104.48834 8,900 4 138 320
2018-01-18 17:30:25 GMT 39.14699 -104.48864 8,875 4 138 512
2018-01-18 17:30:19 GMT 39.14365 -104.48894 8,825 3 141 576
2018-01-18 17:30:15 GMT 39.14000 -104.48920 8,775 3 145 192
2018-01-18 17:30:09 GMT 39.13661 -104.48944 8,775 2 146 -192
2018-01-18 17:30:06 GMT 39.13490 -104.48953 8,775 358 145 -384
2018-01-18 17:30:04 GMT 39.13302 -104.48926 8,800 342 143 -320
2018-01-18 17:30:03 GMT 39.13242 -104.48895 8,800 342 143 -320
2018-01-18 17:29:59 GMT 39.13028 -104.48697 8,825 305 140 -256
2018-01-18 17:29:56 GMT 39.12948 -104.48511 8,850 288 140 -192
2018-01-18 17:29:52 GMT 39.12916 -104.48230 8,850 263 142 -128
2018-01-18 17:29:43 GMT 39.13381 -104.47589 8,850 189 154 64
2018-01-18 17:29:41 GMT 39.13409 -104.47577 8,850 189 154 64
2018-01-18 17:29:34 GMT 39.14003 -104.47789 8,875 140 159 -576
2018-01-18 17:29:32 GMT 39.14056 -104.47864 8,900 128 157 -512
2018-01-18 17:29:30 GMT 39.14149 -104.48053 8,900 114 155 -384
2018-01-18 17:29:27 GMT 39.14204 -104.48362 8,925 90 151 0
2018-01-18 17:29:23 GMT 39.14177 -104.48602 8,900 46 143 384
2018-01-18 17:29:19 GMT 39.14019 -104.48914 8,900 36 142 320
2018-01-18 17:29:16 GMT 39.13811 -104.49067 8,875 18 139 384
2018-01-18 17:29:13 GMT 39.13669 -104.49121 8,850 12 139 192
2018-01-18 17:29:10 GMT 39.13502 -104.49158 8,850 9 138 0
2018-01-18 17:29:07 GMT 39.13280 -104.49204 8,850 8 137 192
2018-01-18 17:29:05 GMT 39.13129 -104.49234 8,825 8 136 128
2018-01-18 17:29:03 GMT 39.13005 -104.49258 8,825 8 136 64
2018-01-18 17:29:00 GMT 39.12817 -104.49288 8,825 7 136 0
2018-01-18 17:28:56 GMT 39.12593 -104.49324 8,825 6 134 -64
2018-01-18 17:28:54 GMT 39.12456 -104.49348 8,825 6 134 -64
2018-01-18 17:28:52 GMT 39.12355 -104.49359 8,825 6 133 0
2018-01-18 17:28:49 GMT 39.12149 -104.49389 8,825 6 132 0
2018-01-18 17:28:45 GMT 39.11873 -104.49426 8,825 5 131 -64
2018-01-18 17:28:43 GMT 39.11826 -104.49432 8,825 5 131 0
2018-01-18 17:28:41 GMT 39.11645 -104.49457 8,825 4 129 640
2018-01-18 17:28:38 GMT 39.11472 -104.49473 8,825 4 129 704
2018-01-18 17:28:33 GMT 39.11165 -104.49493 8,750 0 132 576
2018-01-18 17:28:27 GMT 39.10789 -104.49461 8,725 352 133 -64
2018-01-18 17:28:21 GMT 39.10528 -104.49420 8,725 357 132 -64
2018-01-18 17:28:14 GMT 39.10062 -104.49567 8,725 29 133 -192
2018-01-18 17:28:11 GMT 39.09901 -104.49753 8,750 47 134 -256
2018-01-18 17:28:07 GMT 39.09792 -104.50004 8,775 75 134 -64
2018-01-18 17:28:05 GMT 39.09755 -104.50177 8,775 83 134 -64
2018-01-18 17:28:01 GMT 39.09755 -104.50494 8,775 105 135 0
2018-01-18 17:28:00 GMT 39.09778 -104.50610 8,775 109 134 64
2018-01-18 17:27:56 GMT 39.09857 -104.50830 8,775 122 135 192
2018-01-18 17:27:54 GMT 39.09952 -104.50989 8,750 134 135 256
2018-01-18 17:27:50 GMT 39.10149 -104.51187 8,725 150 134 256
2018-01-18 17:27:48 GMT 39.10286 -104.51269 8,725 161 134 320
2018-01-18 17:27:42 GMT 39.10533 -104.51377 8,700 163 133 192
2018-01-18 17:27:39 GMT 39.10784 -104.51477 8,700 162 134 192
2018-01-18 17:27:38 GMT 39.10784 -104.51477 8,700 162 134 192
2018-01-18 17:27:32 GMT 39.11183 -104.51640 8,675 162 136 192
2018-01-18 17:27:27 GMT 39.11485 -104.51772 8,650 160 137 256
2018-01-18 17:27:20 GMT 39.11870 -104.51951 8,625 157 140 256
2018-01-18 17:27:17 GMT 39.12217 -104.52136 8,625 161 141 -256
2018-01-18 17:27:14 GMT 39.12264 -104.52155 8,625 163 140 -256
2018-01-18 17:27:09 GMT 39.12534 -104.52184 8,625 196 137 0
2018-01-18 17:27:04 GMT 39.12808 -104.51999 8,625 232 137 -128
2018-01-18 17:26:58 GMT 39.12918 -104.51509 8,675 276 135 -384
2018-01-18 17:26:54 GMT 39.12804 -104.51198 8,675 324 136 -384
2018-01-18 17:26:54 GMT 39.12804 -104.51198 8,675 312 134 0
2018-01-18 17:26:47 GMT 39.12456 -104.50978 8,700 359 138 -768
2018-01-18 17:26:44 GMT 39.12185 -104.51099 8,775 37 140 -576
2018-01-18 17:26:44 GMT 39.12185 -104.51099 8,775 42 140 -576
2018-01-18 17:26:37 GMT 39.12012 -104.51551 8,825 90 145 -448
2018-01-18 17:26:33 GMT 39.12117 -104.51945 8,850 128 146 0
2018-01-18 17:26:33 GMT 39.12117 -104.51945 8,850 153 148 64
2018-01-18 17:26:26 GMT 39.12442 -104.52243 8,825 157 147 64
2018-01-18 17:26:22 GMT 39.12785 -104.52417 8,825 159 148 64
2018-01-18 17:26:21 GMT 39.12785 -104.52417 8,825 159 147 64
2018-01-18 17:26:15 GMT 39.13177 -104.52600 8,825 160 146 -64
2018-01-18 17:26:10 GMT 39.13435 -104.52721 8,825 159 143 64
2018-01-18 17:26:09 GMT 39.13553 -104.52777 8,850 160 143 128
2018-01-18 17:26:05 GMT 39.13829 -104.52906 8,825 160 142 320
2018-01-18 17:25:59 GMT 39.14200 -104.53079 8,800 160 143 0
2018-01-18 17:25:53 GMT 39.14527 -104.53229 8,800 159 142 -192
2018-01-18 17:25:50 GMT 39.14763 -104.53342 8,800 158 140 -192
2018-01-18 17:25:48 GMT 39.14850 -104.53390 8,800 157 140 -256
2018-01-18 17:25:43 GMT 39.15138 -104.53551 8,850 154 137 -384
2018-01-18 17:25:40 GMT 39.15322 -104.53668 8,850 154 133 448
2018-01-18 17:25:36 GMT 39.15550 -104.53808 8,850 154 133 448
2018-01-18 17:25:32 GMT 39.15746 -104.53931 8,825 154 134 704
2018-01-18 17:25:26 GMT 39.16137 -104.54150 8,750 156 136 448
2018-01-18 17:25:22 GMT 39.16370 -104.54285 8,725 156 136 384
2018-01-18 17:25:15 GMT 39.16775 -104.54517 8,675 156 138 384
2018-01-18 17:25:11 GMT 39.17006 -104.54644 8,650 156 141 640
2018-01-18 17:25:07 GMT 39.17208 -104.54761 8,625 156 142 512
2018-01-18 17:25:03 GMT 39.17464 -104.54901 8,600 159 145 -448
2018-01-18 17:24:59 GMT 39.17688 -104.54984 8,625 172 142 -512
2018-01-18 17:24:57 GMT 39.17901 -104.54974 8,650 192 140 -384
2018-01-18 17:24:51 GMT 39.18158 -104.54803 8,675 223 135 384
2018-01-18 17:24:49 GMT 39.18256 -104.54650 8,650 243 135 576
2018-01-18 17:24:44 GMT 39.18338 -104.54297 8,625 262 136 384
2018-01-18 17:24:41 GMT 39.18306 -104.54017 8,625 291 140 -320
2018-01-18 17:24:39 GMT 39.18205 -104.53790 8,625 311 139 -384
2018-01-18 17:24:34 GMT 39.17862 -104.53533 8,650 350 141 128
2018-01-18 17:24:28 GMT 39.17594 -104.53534 8,650 17 145 128
2018-01-18 17:24:22 GMT 39.17240 -104.53772 8,650 48 150 -128
2018-01-18 17:24:16 GMT 39.17070 -104.54160 8,675 80 153 -896
2018-01-18 17:24:13 GMT 39.17059 -104.54413 8,700 98 152 -896
2018-01-18 17:24:11 GMT 39.17119 -104.54669 8,750 119 150 -448
2018-01-18 17:24:06 GMT 39.17340 -104.54990 8,775 147 149 -128
2018-01-18 17:24:03 GMT 39.17520 -104.55121 8,775 156 148 -128
2018-01-18 17:24:00 GMT 39.17715 -104.55229 8,800 157 148 0
2018-01-18 17:23:55 GMT 39.18013 -104.55384 8,800 157 147 0
2018-01-18 17:23:52 GMT 39.18214 -104.55497 8,800 157 148 -128
2018-01-18 17:23:48 GMT 39.18572 -104.55682 8,800 157 148 -320
2018-01-18 17:23:45 GMT 39.18702 -104.55756 8,825 158 147 -384
2018-01-18 17:23:40 GMT 39.18930 -104.55872 8,850 158 145 -128
2018-01-18 17:23:35 GMT 39.19244 -104.56029 8,825 158 143 256
2018-01-18 17:23:33 GMT 39.19363 -104.56085 8,825 158 144 192
2018-01-18 17:23:30 GMT 39.19615 -104.56208 8,825 159 144 64
2018-01-18 17:23:27 GMT 39.19852 -104.56323 8,800 159 141 320
2018-01-18 17:23:25 GMT 39.19913 -104.56354 8,800 159 143 256
2018-01-18 17:23:22 GMT 39.20061 -104.56427 8,800 159 142 320
2018-01-18 17:23:19 GMT 39.20288 -104.56530 8,775 160 142 320
2018-01-18 17:23:14 GMT 39.20597 -104.56665 8,750 162 142 192
2018-01-18 17:23:10 GMT 39.20811 -104.56744 8,750 164 141 256
2018-01-18 17:23:07 GMT 39.21007 -104.56787 8,725 178 141 64
2018-01-18 17:23:04 GMT 39.21276 -104.56775 8,725 193 138 128
2018-01-18 17:23:00 GMT 39.21440 -104.56726 8,725 201 137 192
2018-01-18 17:22:57 GMT 39.21652 -104.56608 8,725 213 135 128
2018-01-18 17:22:52 GMT 39.21882 -104.56396 8,700 224 135 64
2018-01-18 17:22:50 GMT 39.22000 -104.56238 8,700 232 134 64
2018-01-18 17:22:40 GMT 39.22270 -104.55456 8,700 259 132 -256
2018-01-18 17:22:29 GMT 39.22422 -104.54663 8,750 249 128 -128
2018-01-18 17:22:23 GMT 39.22547 -104.54315 8,750 240 128 128
2018-01-18 17:22:20 GMT 39.22641 -104.54136 8,750 231 128 192
2018-01-18 17:22:17 GMT 39.22769 -104.53951 8,725 224 130 192
2018-01-18 17:22:09 GMT 39.23190 -104.53593 8,725 205 134 0
2018-01-18 17:22:07 GMT 39.23339 -104.53528 8,700 195 135 64
2018-01-18 17:21:59 GMT 39.23877 -104.53509 8,700 166 138 256
2018-01-18 17:21:56 GMT 39.24005 -104.53557 8,700 161 139 192
2018-01-18 17:21:52 GMT 39.24257 -104.53670 8,675 159 139 -192
2018-01-18 17:21:48 GMT 39.24477 -104.53778 8,700 157 140 -256
2018-01-18 17:21:46 GMT 39.24678 -104.53885 8,700 157 138 -448
2018-01-18 17:21:42 GMT 39.24908 -104.54010 8,725 155 134 -512
2018-01-18 17:21:37 GMT 39.25131 -104.54142 8,750 155 130 -448
2018-01-18 17:21:35 GMT 39.25261 -104.54218 8,775 154 124 -128
2018-01-18 17:21:30 GMT 39.25479 -104.54351 8,750 154 116 384
2018-01-18 17:21:27 GMT 39.25624 -104.54443 8,750 154 114 320
2018-01-18 17:21:23 GMT 39.25825 -104.54565 8,725 154 110 0
2018-01-18 17:21:21 GMT 39.25951 -104.54644 8,725 153 104 -512
2018-01-18 17:21:13 GMT 39.26262 -104.54841 8,775 153 93 -192
2018-01-18 17:21:09 GMT 39.26395 -104.54924 8,800 153 93 -192
2018-01-18 17:21:02 GMT 39.26700 -104.55127 8,800 152 96 -64
2018-01-18 17:20:59 GMT 39.26849 -104.55225 8,825 152 97 -64
2018-01-18 17:20:56 GMT 39.26975 -104.55304 8,825 153 100 -64
2018-01-18 17:20:52 GMT 39.27123 -104.55396 8,825 154 101 0
2018-01-18 17:20:41 GMT 39.27594 -104.55664 8,825 157 99 320
2018-01-18 17:20:29 GMT 39.28083 -104.55939 8,750 156 98 448
2018-01-18 17:20:18 GMT 39.28496 -104.56178 8,675 155 96 320
2018-01-18 17:20:13 GMT 39.28761 -104.56339 8,650 155 97 320
2018-01-18 17:20:10 GMT 39.28837 -104.56384 8,625 154 93 448
2018-01-18 17:20:08 GMT 39.28916 -104.56433 8,600 155 94 384
2018-01-18 17:20:06 GMT 39.29004 -104.56488 8,600 154 93 384
2018-01-18 17:19:57 GMT 39.29409 -104.56726 8,525 155 92 384
2018-01-18 17:19:45 GMT 39.29805 -104.56952 8,450 155 89 384
2018-01-18 17:19:35 GMT 39.30203 -104.57283 8,350 138 89 448
2018-01-18 17:19:25 GMT 39.30457 -104.57660 8,300 123 89 256
2018-01-18 17:19:15 GMT 39.30666 -104.58154 8,275 109 88 256
2018-01-18 17:19:03 GMT 39.30745 -104.58728 8,250 89 86 -192
2018-01-18 17:18:52 GMT 39.30657 -104.59247 8,275 70 88 -320
2018-01-18 17:18:42 GMT 39.30499 -104.59766 8,325 68 90 -192
2018-01-18 17:18:31 GMT 39.30331 -104.60339 8,375 69 93 -64
2018-01-18 17:18:21 GMT 39.30168 -104.60895 8,375 68 94 256
2018-01-18 17:18:12 GMT 39.30066 -104.61371 8,325 86 94 256
2018-01-18 17:18:09 GMT 39.30066 -104.61487 8,325 91 94 192
2018-01-18 17:18:01 GMT 39.30098 -104.61963 8,300 95 92 256
2018-01-18 17:17:59 GMT 39.30107 -104.62089 8,300 95 91 320
2018-01-18 17:17:51 GMT 39.30145 -104.62555 8,250 95 91 128
2018-01-18 17:17:47 GMT 39.30154 -104.62689 8,250 95 91 384
2018-01-18 17:17:40 GMT 39.30194 -104.63116 8,200 97 90 256
2018-01-18 17:17:37 GMT 39.30210 -104.63269 8,175 98 89 192
2018-01-18 17:17:34 GMT 39.30226 -104.63439 8,175 98 90 192
2018-01-18 17:17:30 GMT 39.30252 -104.63654 8,150 99 89 64
2018-01-18 17:17:27 GMT 39.30275 -104.63843 8,150 98 88 64
2018-01-18 17:17:23 GMT 39.30294 -104.63995 8,150 98 88 128
2018-01-18 17:17:19 GMT 39.30322 -104.64221 8,150 96 90 -64
2018-01-18 17:17:15 GMT 39.30331 -104.64388 8,150 93 91 -256
2018-01-18 17:17:13 GMT 39.30340 -104.64502 8,150 91 91 -320
2018-01-18 17:17:09 GMT 39.30345 -104.64800 8,175 91 89 -128
2018-01-18 17:17:03 GMT 39.30373 -104.65057 8,175 104 86 -256
2018-01-18 17:16:58 GMT 39.30443 -104.65308 8,200 120 86 -64
2018-01-18 17:16:53 GMT 39.30570 -104.65540 8,200 133 89 -192
2018-01-18 17:16:48 GMT 39.30727 -104.65710 8,225 149 89 -320
2018-01-18 17:16:44 GMT 39.30890 -104.65820 8,250 157 88 -192
2018-01-18 17:16:41 GMT 39.30950 -104.65851 8,275 158 89 -192
2018-01-18 17:16:37 GMT 39.31137 -104.65946 8,275 159 92 -192
2018-01-18 17:16:32 GMT 39.31350 -104.66046 8,300 159 94 -192
2018-01-18 17:16:27 GMT 39.31563 -104.66149 8,325 160 97 -256
2018-01-18 17:16:21 GMT 39.31774 -104.66248 8,325 160 100 -64
2018-01-18 17:16:15 GMT 39.32067 -104.66382 8,350 160 105 128
2018-01-18 17:16:11 GMT 39.32300 -104.66490 8,325 160 113 512
2018-01-18 17:16:06 GMT 39.32547 -104.66602 8,300 160 124 -64
2018-01-18 17:16:00 GMT 39.32858 -104.66741 8,325 160 128 -64
2018-01-18 17:15:50 GMT 39.33449 -104.67027 8,350 158 135 -128
2018-01-18 17:15:50 GMT 39.33449 -104.67027 8,350 157 135 -128
2018-01-18 17:15:42 GMT 39.33846 -104.67230 8,350 158 142 -64
2018-01-18 17:15:38 GMT 39.34116 -104.67371 8,350 157 147 -64
2018-01-18 17:15:37 GMT 39.34186 -104.67409 8,375 157 147 -64
2018-01-18 17:15:33 GMT 39.34460 -104.67558 8,375 156 154 192
2018-01-18 17:15:29 GMT 39.34800 -104.67743 8,350 157 161 64
2018-01-18 17:15:27 GMT 39.34800 -104.67743 8,350 157 161 64
2018-01-18 17:15:22 GMT 39.35170 -104.67947 8,350 156 170 -128
2018-01-18 17:15:17 GMT 39.35550 -104.68156 8,375 156 174 64
2018-01-18 17:15:13 GMT 39.35875 -104.68341 8,375 156 177 0
2018-01-18 17:15:07 GMT 39.36364 -104.68616 8,375 156 181 -64
2018-01-18 17:15:02 GMT 39.36723 -104.68817 8,375 156 183 0
2018-01-18 17:14:56 GMT 39.37267 -104.69128 8,375 155 186 0
2018-01-18 17:14:51 GMT 39.37541 -104.69284 8,375 155 186 64
2018-01-18 17:14:47 GMT 39.37898 -104.69493 8,375 155 186 64
2018-01-18 17:14:45 GMT 39.38077 -104.69592 8,375 155 186 -64
2018-01-18 17:14:42 GMT 39.38338 -104.69745 8,375 155 185 0
2018-01-18 17:14:40 GMT 39.38417 -104.69788 8,375 155 185 0
2018-01-18 17:14:37 GMT 39.38713 -104.69959 8,375 156 184 -64
2018-01-18 17:14:34 GMT 39.38956 -104.70096 8,375 156 184 -64
2018-01-18 17:14:31 GMT 39.39190 -104.70227 8,375 156 184 0
2018-01-18 17:14:25 GMT 39.39572 -104.70441 8,375 158 181 -128
2018-01-18 17:14:23 GMT 39.39800 -104.70551 8,375 162 180 0
2018-01-18 17:14:20 GMT 39.40009 -104.70624 8,375 167 178 192
2018-01-18 17:14:16 GMT 39.40366 -104.70693 8,375 175 176 128
2018-01-18 17:14:12 GMT 39.40700 -104.70705 8,350 181 175 128
2018-01-18 17:14:10 GMT 39.40846 -104.70705 8,350 182 175 128
2018-01-18 17:14:05 GMT 39.41226 -104.70687 8,350 183 175 64
2018-01-18 17:14:01 GMT 39.41574 -104.70669 8,350 183 174 64
2018-01-18 17:13:59 GMT 39.41702 -104.70663 8,350 183 173 0
2018-01-18 17:13:55 GMT 39.42064 -104.70645 8,350 182 172 -64
2018-01-18 17:13:55 GMT 39.42105 -104.70645 8,350 182 172 -64
2018-01-18 17:13:48 GMT 39.42549 -104.70633 8,350 182 170 0
2018-01-18 17:13:44 GMT 39.42879 -104.70622 8,350 182 168 192
2018-01-18 17:13:39 GMT 39.43338 -104.70612 8,325 182 167 192
2018-01-18 17:13:36 GMT 39.43538 -104.70606 8,300 181 167 -64
2018-01-18 17:13:34 GMT 39.43738 -104.70599 8,300 181 167 -128
2018-01-18 17:13:29 GMT 39.44101 -104.70599 8,325 181 164 64
2018-01-18 17:13:27 GMT 39.44166 -104.70599 8,325 181 163 192
2018-01-18 17:13:23 GMT 39.44508 -104.70592 8,300 178 163 320
2018-01-18 17:13:22 GMT 39.44536 -104.70592 8,300 178 163 320
2018-01-18 17:13:17 GMT 39.44943 -104.70633 8,275 171 163 256
2018-01-18 17:13:12 GMT 39.45300 -104.70741 8,250 159 165 256
2018-01-18 17:13:12 GMT 39.45300 -104.70741 8,250 159 165 256
2018-01-18 17:13:07 GMT 39.45712 -104.70998 8,225 147 165 384
2018-01-18 17:13:01 GMT 39.46001 -104.71266 8,175 138 167 512
2018-01-18 17:13:01 GMT 39.46052 -104.71326 8,175 135 168 512
2018-01-18 17:12:57 GMT 39.46307 -104.71696 8,125 127 169 512
2018-01-18 17:12:51 GMT 39.46531 -104.72089 8,100 125 170 512
2018-01-18 17:12:49 GMT 39.46620 -104.72247 8,075 125 170 512
2018-01-18 17:12:46 GMT 39.46788 -104.72550 8,050 125 169 320
2018-01-18 17:12:41 GMT 39.47011 -104.72955 8,025 125 169 384
2018-01-18 17:12:35 GMT 39.47310 -104.73488 7,975 126 168 576
2018-01-18 17:12:30 GMT 39.47504 -104.73840 7,925 126 168 512
2018-01-18 17:12:29 GMT 39.47552 -104.73917 7,925 126 168 576
2018-01-18 17:12:24 GMT 39.47786 -104.74335 7,875 126 169 512
2018-01-18 17:12:19 GMT 39.48006 -104.74706 7,850 128 169 960
2018-01-18 17:12:19 GMT 39.47983 -104.74664 7,850 128 168 960
2018-01-18 17:12:17 GMT 39.48077 -104.74823 7,825 128 169 1024
2018-01-18 17:12:13 GMT 39.48326 -104.75219 7,725 129 173 576
2018-01-18 17:12:09 GMT 39.48495 -104.75488 7,700 129 175 320
2018-01-18 17:12:02 GMT 39.48871 -104.76061 7,675 130 174 256
2018-01-18 17:12:00 GMT 39.48962 -104.76198 7,675 130 173 256
2018-01-18 17:11:58 GMT 39.49072 -104.76365 7,650 129 174 192
2018-01-18 17:11:54 GMT 39.49342 -104.76789 7,625 130 173 320
2018-01-18 17:11:52 GMT 39.49450 -104.76947 7,625 130 173 320
2018-01-18 17:11:51 GMT 39.49417 -104.76898 7,625 130 173 320
2018-01-18 17:11:48 GMT 39.49608 -104.77189 7,600 130 173 256
2018-01-18 17:11:43 GMT 39.49892 -104.77625 7,575 130 173 256
2018-01-18 17:11:41 GMT 39.50018 -104.77820 7,575 130 173 192
2018-01-18 17:11:38 GMT 39.50144 -104.78009 7,550 130 173 256
2018-01-18 17:11:37 GMT 39.50144 -104.78009 7,550 130 173 192
2018-01-18 17:11:32 GMT 39.50469 -104.78491 7,525 131 169 256
2018-01-18 17:11:30 GMT 39.50569 -104.78640 7,525 130 172 320
2018-01-18 17:11:27 GMT 39.50693 -104.78825 7,500 130 170 192
2018-01-18 17:11:26 GMT 39.50725 -104.78873 7,500 130 171 256
2018-01-18 17:11:20 GMT 39.51093 -104.79419 7,475 131 169 320
2018-01-18 17:11:18 GMT 39.51150 -104.79500 7,450 131 167 448
2018-01-18 17:11:17 GMT 39.51256 -104.79649 7,450 132 167 704
2018-01-18 17:11:16 GMT 39.51288 -104.79697 7,425 132 167 640
2018-01-18 17:11:10 GMT 39.51585 -104.80121 7,375 132 165 320
2018-01-18 17:11:08 GMT 39.51700 -104.80282 7,375 132 164 192
2018-01-18 17:11:06 GMT 39.51796 -104.80420 7,350 132 163 0
2018-01-18 17:11:06 GMT 39.51796 -104.80420 7,350 132 163 0
2018-01-18 17:11:01 GMT 39.52057 -104.80790 7,350 132 159 512
2018-01-18 17:10:58 GMT 39.52222 -104.81023 7,325 132 157 576
2018-01-18 17:10:56 GMT 39.52322 -104.81166 7,275 132 157 384
2018-01-18 17:10:56 GMT 39.52341 -104.81190 7,275 132 157 384
2018-01-18 17:10:50 GMT 39.52592 -104.81543 7,250 132 152 0
2018-01-18 17:10:49 GMT 39.52611 -104.81566 7,250 132 153 0
2018-01-18 17:10:47 GMT 39.52757 -104.81769 7,250 132 149 128
2018-01-18 17:10:44 GMT 39.52853 -104.81906 7,250 132 146 384
2018-01-18 17:10:40 GMT 39.53095 -104.82245 7,200 132 140 1088
2018-01-18 17:10:38 GMT 39.53114 -104.82277 7,175 132 141 1088
2018-01-18 17:10:36 GMT 39.53243 -104.82456 7,125 132 141 1024
2018-01-18 17:10:34 GMT 39.53307 -104.82545 7,100 132 140 832
2018-01-18 17:10:34 GMT 39.53330 -104.82575 7,100 132 140 832
2018-01-18 17:10:27 GMT 39.53598 -104.82947 7,025 133 138 704
2018-01-18 17:10:24 GMT 39.53787 -104.83208 6,975 132 136 448
2018-01-18 17:10:24 GMT 39.53787 -104.83208 6,975 132 136 384
2018-01-18 17:10:17 GMT 39.54031 -104.83539 6,925 133 131 576
2018-01-18 17:10:15 GMT 39.54176 -104.83739 6,900 132 128 576
2018-01-18 17:10:13 GMT 39.54222 -104.83801 6,875 132 126 832
2018-01-18 17:10:12 GMT 39.54240 -104.83826 6,875 133 127 640
2018-01-18 17:10:02 GMT 39.54636 -104.84381 6,750 135 120 640
2018-01-18 17:10:02 GMT 39.54657 -104.84402 6,750 135 119 704
2018-01-18 17:09:55 GMT 39.54957 -104.84723 6,650 152 111 1024
2018-01-18 17:09:52 GMT 39.55106 -104.84808 6,600 162 108 1344
2018-01-18 17:09:48 GMT 39.55330 -104.84880 6,500 171 108 1216
2018-01-18 17:09:45 GMT 39.55458 -104.84904 6,450 172 108 1088
2018-01-18 17:09:41 GMT 39.55614 -104.84928 6,400 173 107 1088
2018-01-18 17:09:40 GMT 39.55641 -104.84930 6,375 173 107 1088
2018-01-18 17:09:36 GMT 39.55870 -104.84961 6,300 174 106 1216
2018-01-18 17:09:33 GMT 39.56012 -104.84981 6,250 174 106 1216
2018-01-18 17:09:31 GMT 39.56163 -104.84998 6,175 174 106 1216
2018-01-18 17:09:31 GMT 39.56144 -104.84998 6,175 174 106 1216
2018-01-18 17:09:24 GMT 39.56489 -104.85028 6,050 176 107 1152
2018-01-18 17:09:19 GMT 39.56690 -104.85041 5,950 177 106 1088

Making use of Plane Finder data

You are free to use the raw flight data, aircraft information and images provided in this report for your own purposes provided the data is correctly attributed to Plane Finder. We ask that you please credit Plane Finder and link to planefinder.net in close proximity to the content.

Optionally one of the following logos (no smaller then 150x24px) can be used and must link to planefinder.net

Embedding the Plane Finder map

You are welcome to embed the Plane Finder playback map on your website to offer visitors a more interactive experience. We suggest using the following HTML code:

<iframe src="//planefinder.net/data/report/N773GP-N773GP-7700-squawk-2018-01-18/map" width="800" height="600" seamless="seamless"></iframe>

Where our data comes from

Plane Finder has a global network of data feeds and antenna radars that receive data broadcast directly from aircraft. The primary technologies used are ADS-B and MLAT. We also show feeds from the FAA and a FLARM glider feed.

Click here to find out more about the Plane Finder network.

How we collect our data